Time;durP1;ratioP1;P1;durP2;ratioP2;P2;SDS_P1;SDS_P2;PMS_P1;PMS_P2;Temp;Humidity;BMP_temperature;BMP_pressure;BME280_temperature;BME280_humidity;BME280_pressure;Samples;Min_cycle;Max_cycle;Signal;HPM_P1;HPM_P2
2022/05/27 00:00:00;;;;;;;20.23;10.75;;;;;;;13.93;97.97;100972.75;6054199;28;20029;-66
2022/05/27 00:02:55;;;;;;;17.73;10.10;;;;;;;13.91;98.24;100969.44;6058804;28;20069;-67
2022/05/27 00:05:51;;;;;;;24.40;11.30;;;;;;;13.83;98.19;100961.41;6060087;28;20029;-66
2022/05/27 00:08:46;;;;;;;20.25;10.25;;;;;;;13.81;98.65;100952.72;6054973;28;20100;-65
2022/05/27 00:11:41;;;;;;;18.53;9.07;;;;;;;13.79;98.60;100960.03;6054611;28;20029;-65
2022/05/27 00:14:37;;;;;;;16.67;9.53;;;;;;;13.78;98.94;100944.22;6054143;28;20025;-66
2022/05/27 00:17:32;;;;;;;15.55;9.20;;;;;;;13.77;99.08;100945.22;6054354;28;20030;-67
2022/05/27 00:20:27;;;;;;;13.57;8.67;;;;;;;13.77;98.80;100939.88;6063545;28;20380;-66
2022/05/27 00:23:23;;;;;;;16.20;8.75;;;;;;;13.78;98.62;100946.88;6057226;28;20068;-66
2022/05/27 00:26:18;;;;;;;18.67;8.77;;;;;;;13.80;98.44;100940.41;6054059;28;20037;-65
2022/05/27 00:29:13;;;;;;;14.80;8.03;;;;;;;13.90;98.44;100943.75;6054807;28;20033;-65
2022/05/27 00:32:09;;;;;;;15.53;7.90;;;;;;;13.87;98.73;100941.41;6052664;28;20038;-66
2022/05/27 00:35:05;;;;;;;14.05;7.75;;;;;;;13.84;98.39;100936.41;6062624;28;20036;-65
2022/05/27 00:38:01;;;;;;;18.02;8.23;;;;;;;13.88;97.87;100932.44;6060429;28;20037;-65
2022/05/27 00:40:57;;;;;;;13.00;7.80;;;;;;;13.96;97.88;100928.94;6053121;28;20065;-64
2022/05/27 00:43:52;;;;;;;16.38;7.95;;;;;;;13.93;97.79;100923.94;6056002;28;20397;-65
2022/05/27 00:46:47;;;;;;;12.50;7.87;;;;;;;13.96;97.68;100920.94;6053843;28;20046;-65
2022/05/27 00:49:54;;;;;;;14.17;7.70;;;;;;;13.93;97.36;100915.94;6055241;28;20109;-65
2022/05/27 00:52:49;;;;;;;15.50;7.35;;;;;;;14.00;97.43;100912.44;6053866;28;20064;-65
2022/05/27 00:55:48;;;;;;;14.33;6.20;;;;;;;13.97;97.09;100910.09;6068579;28;20091;-69
2022/05/27 00:59:05;;;;;;;20.13;7.65;;;;;;;13.90;97.37;100903.75;6063079;28;20062;-67
2022/05/27 01:02:00;;;;;;;12.75;8.00;;;;;;;13.80;97.37;100900.41;6052194;28;20505;-66
2022/05/27 01:04:57;;;;;;;14.03;8.00;;;;;;;13.88;98.00;100905.75;6052702;28;20069;-65
2022/05/27 01:07:56;;;;;;;15.40;7.88;;;;;;;13.83;98.31;100900.09;6052572;28;20041;-65
2022/05/27 01:11:13;;;;;;;15.38;7.82;;;;;;;13.77;98.47;100890.06;6049819;28;20041;-65
2022/05/27 01:14:20;;;;;;;12.40;7.85;;;;;;;13.82;98.58;100889.56;6055702;28;20037;-66
2022/05/27 01:17:46;;;;;;;13.65;7.82;;;;;;;13.86;98.70;100896.25;6074372;28;20044;-65
2022/05/27 01:21:00;;;;;;;15.43;7.50;;;;;;;13.88;98.50;100897.75;6051841;28;20037;-66
2022/05/27 01:24:23;;;;;;;19.50;8.02;;;;;;;13.91;98.11;100894.78;6067669;28;20026;-66
2022/05/27 01:27:24;;;;;;;13.60;8.10;;;;;;;13.88;98.61;100888.94;6053592;28;20481;-65
2022/05/27 01:30:20;;;;;;;16.05;7.68;;;;;;;13.89;98.11;100890.59;6052744;28;20029;-66
2022/05/27 01:33:35;;;;;;;16.83;7.97;;;;;;;13.87;98.42;100877.44;6064459;28;20092;-65
2022/05/27 01:37:16;;;;;;;14.70;7.28;;;;;;;13.77;98.74;100870.56;6067241;28;20280;-67
2022/05/27 01:40:36;;;;;;;17.23;7.88;;;;;;;13.81;98.61;100870.06;6048417;28;20461;-68
2022/05/27 01:43:50;;;;;;;;;;;;;;;13.80;98.79;100872.91;6046293;28;20050;-66
2022/05/27 01:46:46;;;;;;;15.70;8.00;;;;;;;13.73;99.23;100875.38;6060781;28;19924;-67
2022/05/27 01:49:49;;;;;;;17.85;8.68;;;;;;;13.73;99.52;100867.38;6052041;28;20538;-68
2022/05/27 01:52:55;;;;;;;19.35;10.13;;;;;;;13.69;100.00;100879.38;6059049;28;20858;-67
2022/05/27 01:56:05;;;;;;;19.00;9.68;;;;;;;13.69;100.00;100868.72;6050886;28;20041;-69
2022/05/27 01:59:05;;;;;;;17.80;9.27;;;;;;;13.65;100.00;100868.22;6068740;28;20037;-68
2022/05/27 02:02:07;;;;;;;15.70;9.57;;;;;;;13.61;100.00;100871.38;6058273;28;20546;-69
2022/05/27 02:05:10;;;;;;;19.48;10.57;;;;;;;13.65;100.00;100878.03;6058268;28;20045;-69
2022/05/27 02:08:18;;;;;;;18.35;10.43;;;;;;;13.61;100.00;100866.03;6051724;28;20036;-69
2022/05/27 02:11:15;;;;;;;24.88;9.80;;;;;;;13.57;100.00;100868.19;6050591;28;20112;-69
2022/05/27 02:14:19;;;;;;;18.25;8.82;;;;;;;13.46;100.00;100873.81;6054749;28;20046;-71
2022/05/27 02:17:40;;;;;;;17.27;7.53;;;;;;;13.47;100.00;100874.63;6051390;28;20041;-71
2022/05/27 02:20:42;;;;;;;14.70;8.30;;;;;;;13.48;100.00;100863.81;6066956;28;20440;-69
2022/05/27 02:23:45;;;;;;;17.42;7.80;;;;;;;13.42;100.00;100860.97;6053553;28;20096;-72
2022/05/27 02:26:44;;;;;;;15.73;8.23;;;;;;;13.61;100.00;100874.88;6052409;28;20038;-69
2022/05/27 02:29:42;;;;;;;16.10;8.73;;;;;;;13.63;100.00;100867.53;6049670;28;20041;-70
2022/05/27 02:32:40;;;;;;;19.42;9.75;;;;;;;13.49;100.00;100881.47;6050620;28;20029;-69
2022/05/27 02:35:37;;;;;;;14.05;8.05;;;;;;;13.50;100.00;100884.97;6049646;28;20037;-69
2022/05/27 02:38:33;;;;;;;25.83;8.43;;;;;;;13.30;100.00;100867.56;6050403;28;20379;-71
2022/05/27 02:41:38;;;;;;;6.75;2.90;;;;;;;12.78;100.00;100867.56;6054398;28;20080;-69
2022/05/27 02:45:17;;;;;;;6.88;2.75;;;;;;;12.64;100.00;100860.16;6049611;28;20049;-69
2022/05/27 02:48:21;;;;;;;;;;;;;;;12.39;100.00;100892.91;6064362;28;20029;-67
2022/05/27 02:51:28;;;;;;;11.48;3.65;;;;;;;12.30;100.00;100894.66;6065537;28;19918;-71
2022/05/27 02:54:48;;;;;;;11.20;2.78;;;;;;;12.27;100.00;100899.44;6059766;28;20034;-70
2022/05/27 02:57:48;;;;;;;5.05;2.85;;;;;;;12.31;100.00;100895.50;6049848;28;20050;-69
2022/05/27 03:00:44;;;;;;;;;;;;;;;12.21;100.00;100908.00;6050038;28;20037;-68
2022/05/27 03:03:40;;;;;;;4.70;2.67;;;;;;;12.17;100.00;100893.34;6055588;28;19918;-68
2022/05/27 03:06:46;;;;;;;6.72;2.50;;;;;;;12.26;100.00;100919.00;6051271;28;20025;-67
2022/05/27 03:09:50;;;;;;;4.80;2.30;;;;;;;12.35;100.00;100928.75;6073132;28;20030;-67
2022/05/27 03:13:03;;;;;;;6.22;2.22;;;;;;;12.29;100.00;100929.34;6055028;28;20113;-67
2022/05/27 03:16:40;;;;;;;6.93;3.08;;;;;;;12.20;100.00;100930.28;6055931;28;20034;-66
2022/05/27 03:20:03;;;;;;;4.80;2.38;;;;;;;12.15;100.00;100932.56;6028730;28;20041;-66
2022/05/27 03:23:10;;;;;;;4.63;2.20;;;;;;;12.04;100.00;100935.44;6059234;28;20042;-67
2022/05/27 03:26:15;;;;;;;6.75;2.30;;;;;;;11.95;100.00;100939.81;6050222;28;20053;-68
2022/05/27 03:29:31;;;;;;;3.35;1.80;;;;;;;11.80;100.00;100920.03;6066154;28;20564;-68
2022/05/27 03:32:36;;;;;;;8.35;2.58;;;;;;;11.64;100.00;100933.94;6050101;28;20470;-67
2022/05/27 03:35:46;;;;;;;4.03;1.73;;;;;;;11.58;100.00;100923.88;6050079;28;20404;-68
2022/05/27 03:38:53;;;;;;;6.95;2.03;;;;;;;11.55;100.00;100929.50;6051686;28;20057;-66
2022/05/27 03:41:56;;;;;;;;;;;;;;;11.57;100.00;100932.88;6067533;28;20040;-67
2022/05/27 03:44:58;;;;;;;5.82;1.90;;;;;;;11.56;100.00;100933.00;6069966;28;19917;-67
2022/05/27 03:47:53;;;;;;;3.22;2.00;;;;;;;11.50;100.00;100926.44;6052024;28;20108;-67
2022/05/27 03:50:50;;;;;;;3.70;1.63;;;;;;;11.49;100.00;100923.94;6049631;28;20473;-67
2022/05/27 03:54:03;;;;;;;4.72;1.80;;;;;;;11.41;100.00;100900.78;6054383;28;20275;-66
2022/05/27 03:56:59;;;;;;;3.63;1.73;;;;;;;11.61;100.00;100912.13;6046860;28;20076;-67
2022/05/27 03:59:54;;;;;;;3.80;1.63;;;;;;;11.56;100.00;100930.34;6055120;28;20042;-66
2022/05/27 04:02:50;;;;;;;4.87;2.13;;;;;;;11.58;100.00;100925.72;6058986;28;20045;-66
2022/05/27 04:05:45;;;;;;;3.00;1.90;;;;;;;11.64;100.00;100923.31;6049654;28;20492;-66
2022/05/27 04:08:41;;;;;;;5.10;2.17;;;;;;;11.66;100.00;100933.81;6059026;28;20048;-67
2022/05/27 04:11:36;;;;;;;6.17;2.30;;;;;;;11.76;100.00;100943.44;6049602;28;20033;-67
2022/05/27 04:14:32;;;;;;;5.60;2.30;;;;;;;11.78;100.00;100946.75;6050607;28;20112;-66
2022/05/27 04:17:33;;;;;;;5.93;2.03;;;;;;;11.81;100.00;100941.16;6060311;28;20268;-66
2022/05/27 04:20:28;;;;;;;5.90;2.67;;;;;;;11.89;100.00;100946.56;6049644;28;20037;-65
2022/05/27 04:23:23;;;;;;;6.33;2.60;;;;;;;11.88;100.00;100955.50;6065566;28;20030;-66
2022/05/27 04:26:19;;;;;;;6.13;2.40;;;;;;;11.88;100.00;100958.16;6053678;28;20037;-66
2022/05/27 04:29:14;;;;;;;4.53;2.08;;;;;;;11.88;100.00;100952.84;6060013;28;20037;-66
2022/05/27 04:32:10;;;;;;;4.13;2.23;;;;;;;11.90;100.00;100950.88;6049979;28;20038;-66
2022/05/27 04:35:06;;;;;;;5.90;2.55;;;;;;;11.97;100.00;100966.22;6051554;28;20116;-66
2022/05/27 04:38:02;;;;;;;5.03;2.53;;;;;;;11.99;100.00;100965.09;6054109;28;20037;-66
2022/05/27 04:40:57;;;;;;;6.78;2.63;;;;;;;11.99;100.00;100964.25;6052537;28;20040;-66
2022/05/27 04:43:52;;;;;;;4.50;2.70;;;;;;;12.05;100.00;100959.19;6050739;28;20400;-65
2022/05/27 04:46:48;;;;;;;5.63;3.13;;;;;;;12.04;100.00;100959.34;6052988;28;20029;-67
2022/05/27 04:49:53;;;;;;;5.67;3.17;;;;;;;12.07;100.00;100967.00;6053172;28;20058;-66
2022/05/27 04:52:49;;;;;;;7.07;3.03;;;;;;;12.02;100.00;100959.50;6059160;28;20277;-66
2022/05/27 04:55:44;;;;;;;5.03;3.10;;;;;;;12.09;100.00;100970.38;6059499;28;20033;-65
2022/05/27 04:58:39;;;;;;;6.40;3.37;;;;;;;12.03;100.00;100960.31;6056941;28;20080;-65
2022/05/27 05:01:34;;;;;;;6.10;3.17;;;;;;;12.09;100.00;100955.25;6057491;28;20096;-65
2022/05/27 05:04:30;;;;;;;7.90;3.03;;;;;;;12.22;100.00;100960.22;6059714;28;20057;-66
2022/05/27 05:07:25;;;;;;;3.80;2.40;;;;;;;12.19;100.00;100961.34;6053323;28;20401;-65
2022/05/27 05:10:22;;;;;;;8.07;2.53;;;;;;;12.31;100.00;100969.94;6052813;28;20069;-66
2022/05/27 05:13:17;;;;;;;5.85;2.90;;;;;;;12.31;100.00;100980.59;6052777;28;20052;-66
2022/05/27 05:16:12;;;;;;;6.97;2.97;;;;;;;12.37;100.00;100982.63;6052849;28;20473;-65
2022/05/27 05:19:08;;;;;;;5.90;3.00;;;;;;;12.44;99.82;100975.72;6067783;28;20068;-65
2022/05/27 05:22:03;;;;;;;8.90;3.53;;;;;;;12.49;99.22;100974.28;6051706;28;20091;-65
2022/05/27 05:24:59;;;;;;;7.68;3.45;;;;;;;12.55;98.83;100975.50;6059676;28;20064;-65
2022/05/27 05:27:54;;;;;;;9.00;3.80;;;;;;;12.68;98.71;100983.09;6054427;28;20116;-65
2022/05/27 05:30:49;;;;;;;7.85;3.47;;;;;;;12.84;98.21;100980.56;6058678;28;20113;-65
2022/05/27 05:33:45;;;;;;;6.30;2.80;;;;;;;13.01;97.01;100980.56;6064603;28;20121;-65
2022/05/27 05:36:40;;;;;;;5.07;2.60;;;;;;;13.22;96.60;100972.22;6057667;28;20299;-65
2022/05/27 05:39:36;;;;;;;5.97;2.40;;;;;;;13.33;95.86;100979.13;6052258;28;20077;-65
2022/05/27 05:42:32;;;;;;;3.85;2.33;;;;;;;13.59;95.09;100990.59;6058435;28;20484;-65
2022/05/27 05:45:27;;;;;;;4.87;2.27;;;;;;;13.82;94.33;100978.38;6056369;28;20036;-66
2022/05/27 05:48:22;;;;;;;9.65;3.00;;;;;;;13.85;92.02;100980.72;6050794;28;20316;-66
2022/05/27 05:51:18;;;;;;;7.77;3.03;;;;;;;14.13;91.60;100973.34;6050571;28;20045;-65
2022/05/27 05:54:13;;;;;;;3.67;2.28;;;;;;;14.18;88.93;100979.84;6051760;28;20041;-66
2022/05/27 05:57:10;;;;;;;6.80;2.43;;;;;;;13.83;90.18;100982.72;6051939;28;20385;-65
2022/05/27 06:00:06;;;;;;;6.68;2.75;;;;;;;13.90;91.10;100983.75;6062384;28;20634;-66
2022/05/27 06:03:01;;;;;;;8.70;2.58;;;;;;;14.00;91.17;100984.44;6051613;28;20405;-65
2022/05/27 06:05:57;;;;;;;4.53;2.23;;;;;;;14.11;90.26;100984.16;6052763;28;20064;-66
2022/05/27 06:08:52;;;;;;;6.80;2.50;;;;;;;13.97;91.26;100989.28;6052143;28;20049;-65
2022/05/27 06:11:47;;;;;;;7.43;2.50;;;;;;;13.79;90.26;100997.34;6055797;28;20346;-65
2022/05/27 06:14:43;;;;;;;6.13;3.00;;;;;;;13.85;89.00;100986.06;6054413;28;20619;-65
2022/05/27 06:17:38;;;;;;;7.30;3.47;;;;;;;13.60;89.99;100993.09;6055295;28;20044;-65
2022/05/27 06:20:35;;;;;;;5.75;3.10;;;;;;;13.96;90.61;101004.44;6052122;28;20026;-65
2022/05/27 06:23:30;;;;;;;7.80;3.35;;;;;;;14.08;87.19;100992.47;6038902;28;20030;-65
2022/05/27 06:26:25;;;;;;;7.63;2.80;;;;;;;14.14;85.55;100993.66;6052649;28;20030;-67
2022/05/27 06:35:48;;;;;;;8.45;2.78;;;;;;;15.26;79.99;100994.78;6053930;28;20037;-66
2022/05/27 06:38:43;;;;;;;7.33;2.67;;;;;;;15.12;81.54;100993.63;6057631;28;20509;-66
2022/05/27 06:41:39;;;;;;;8.43;3.50;;;;;;;14.65;83.39;101006.81;6056733;28;20029;-66
2022/05/27 06:44:35;;;;;;;12.18;3.20;;;;;;;14.14;83.92;100996.31;6056300;28;20053;-66
2022/05/27 06:47:31;;;;;;;7.50;3.03;;;;;;;13.88;85.65;100998.22;6050823;28;20084;-66
2022/05/27 06:50:26;;;;;;;10.53;3.23;;;;;;;14.11;86.42;101001.97;6053959;28;20473;-66
2022/05/27 06:53:22;;;;;;;7.27;2.80;;;;;;;14.67;81.18;100990.63;6051840;28;20037;-66
2022/05/27 06:56:17;;;;;;;8.52;2.80;;;;;;;15.13;79.64;100995.31;6053864;28;20038;-66
2022/05/27 06:59:14;;;;;;;7.88;3.00;;;;;;;15.01;79.46;101009.16;6049951;28;20041;-66
2022/05/27 07:02:10;;;;;;;8.55;2.08;;;;;;;14.93;80.16;101014.50;6061286;28;20108;-66
2022/05/27 07:05:06;;;;;;;6.00;2.15;;;;;;;15.17;78.92;101023.34;6060068;28;20558;-65
2022/05/27 07:08:02;;;;;;;7.57;1.95;;;;;;;15.43;73.40;101036.53;6054214;28;20042;-66
2022/05/27 07:10:58;;;;;;;12.02;2.28;;;;;;;15.00;72.98;101027.00;6048746;28;20029;-66
2022/05/27 07:13:53;;;;;;;9.80;2.15;;;;;;;14.93;73.52;101020.69;6054362;28;20111;-66
2022/05/27 07:16:49;;;;;;;6.57;1.97;;;;;;;14.80;73.08;101026.53;6050752;28;20030;-66
2022/05/27 07:19:44;;;;;;;9.82;2.42;;;;;;;14.98;73.37;101029.03;6049386;28;20041;-66
2022/05/27 07:22:39;;;;;;;4.05;1.73;;;;;;;14.94;73.08;101022.38;6049009;28;20045;-66
2022/05/27 07:25:35;;;;;;;10.43;2.20;;;;;;;15.38;71.77;101023.66;6049851;28;20105;-66
2022/05/27 07:28:30;;;;;;;6.47;1.95;;;;;;;15.19;71.50;101015.19;6049310;28;20022;-66
2022/05/27 07:31:25;;;;;;;7.27;1.90;;;;;;;15.79;72.22;101012.91;6056729;28;20029;-66
2022/05/27 07:34:21;;;;;;;7.27;1.93;;;;;;;16.02;68.62;101017.34;6052517;28;20040;-66
2022/05/27 07:37:16;;;;;;;6.77;1.87;;;;;;;15.91;67.65;101011.53;6049547;28;20034;-66
2022/05/27 07:40:12;;;;;;;8.43;1.70;;;;;;;16.51;65.84;100996.50;6056660;28;20596;-66
2022/05/27 07:43:08;;;;;;;4.97;1.67;;;;;;;16.64;66.01;101010.16;6057698;28;20054;-66
2022/05/27 07:46:04;;;;;;;6.82;2.92;;;;;;;16.58;67.06;100999.31;6049318;28;20037;-67
2022/05/27 07:48:59;;;;;;;7.07;1.70;;;;;;;16.45;66.12;101007.91;6049094;28;20401;-66
2022/05/27 07:51:55;;;;;;;6.10;1.58;;;;;;;15.93;67.88;101015.69;6056227;28;20393;-66
2022/05/27 07:54:51;;;;;;;11.40;2.00;;;;;;;15.34;69.83;101019.66;6060456;28;20033;-66
2022/05/27 07:57:47;;;;;;;7.75;1.80;;;;;;;15.01;70.07;101004.66;6049612;28;20034;-66
2022/05/27 08:00:43;;;;;;;8.18;1.77;;;;;;;14.95;70.32;101005.31;6059673;28;20370;-66
2022/05/27 08:03:41;;;;;;;7.07;1.55;;;;;;;14.98;67.80;101015.66;6056960;28;20030;-66
2022/05/27 08:06:36;;;;;;;6.97;1.75;;;;;;;15.03;68.22;101004.50;6049698;28;20034;-66
2022/05/27 08:09:32;;;;;;;6.20;1.58;;;;;;;15.43;66.40;101020.50;6060401;28;20484;-66
2022/05/27 08:12:28;;;;;;;7.20;1.93;;;;;;;15.22;64.45;101010.31;6049593;28;20121;-66
2022/05/27 08:15:23;;;;;;;8.68;1.50;;;;;;;15.69;64.60;101018.44;6049433;28;20265;-66
2022/05/27 08:18:20;;;;;;;5.60;1.50;;;;;;;15.51;61.46;101019.66;6063129;28;20472;-66
2022/05/27 08:21:16;;;;;;;7.03;1.73;;;;;;;15.66;61.39;101012.59;6056185;28;20038;-66
2022/05/27 08:24:11;;;;;;;5.38;1.35;;;;;;;15.65;60.58;101008.28;6062963;28;20145;-66
2022/05/27 08:27:07;;;;;;;10.70;1.90;;;;;;;15.87;61.69;101010.22;6054063;28;20481;-66
2022/05/27 08:30:04;;;;;;;4.35;1.60;;;;;;;15.83;62.36;101012.38;6053514;28;20122;-66
2022/05/27 08:33:00;;;;;;;3.80;1.50;;;;;;;16.18;59.49;101005.72;6061698;28;20041;-66
2022/05/27 08:39:10;;;;;;;6.78;1.52;;;;;;;16.56;54.99;101007.53;6062081;28;20037;-66
2022/05/27 08:42:09;;;;;;;4.95;1.38;;;;;;;16.70;55.41;101005.09;6053480;28;20503;-66
2022/05/27 08:45:19;;;;;;;9.27;1.92;;;;;;;16.80;56.95;101005.69;6073214;28;20052;-66
2022/05/27 08:48:15;;;;;;;5.38;1.45;;;;;;;17.11;55.09;101001.06;6060543;28;20374;-66
2022/05/27 08:51:24;;;;;;;6.43;1.50;;;;;;;17.00;51.08;101015.75;6055048;28;20034;-65
2022/05/27 08:54:24;;;;;;;4.63;1.17;;;;;;;17.06;50.49;100998.13;6048748;28;20044;-66
2022/05/27 09:00:33;;;;;;;6.97;1.83;;;;;;;16.90;51.41;100983.00;6053449;28;20030;-66
2022/05/27 09:03:40;;;;;;;6.20;1.60;;;;;;;16.29;53.56;100999.97;6055979;28;20029;-66
2022/05/27 09:06:41;;;;;;;8.35;1.60;;;;;;;16.39;53.83;101010.44;6052496;28;20117;-67
2022/05/27 09:09:37;;;;;;;9.43;1.45;;;;;;;16.19;53.26;100999.38;6054055;28;20045;-66
2022/05/27 09:12:46;;;;;;;7.22;1.83;;;;;;;16.14;54.31;100999.06;6055271;28;20033;-66
2022/05/27 09:15:52;;;;;;;7.55;2.05;;;;;;;16.32;54.96;100999.63;6059398;28;20038;-66
2022/05/27 09:19:09;;;;;;;5.22;1.40;;;;;;;16.47;53.28;101008.56;6076090;28;20040;-66
2022/05/27 09:22:21;;;;;;;5.70;1.40;;;;;;;15.79;54.70;101002.22;6046842;28;20030;-66
2022/05/27 09:25:28;;;;;;;5.25;1.55;;;;;;;16.16;55.01;101009.56;6053747;28;20480;-66
2022/05/27 09:28:56;;;;;;;8.45;1.42;;;;;;;16.50;53.09;100991.28;6055196;28;20073;-66
2022/05/27 09:31:59;;;;;;;5.53;1.10;;;;;;;17.04;54.08;100984.88;6040097;28;20405;-65
2022/05/27 09:34:56;;;;;;;7.03;1.50;;;;;;;17.60;52.22;100994.25;6050873;28;20105;-66
2022/05/27 09:37:55;;;;;;;6.88;1.65;;;;;;;17.59;52.30;100989.88;6058941;28;20038;-66
2022/05/27 09:41:10;;;;;;;7.60;1.40;;;;;;;17.79;52.30;100993.69;6053014;28;20109;-66
2022/05/27 09:44:13;;;;;;;6.38;1.77;;;;;;;17.79;50.68;100982.97;6064168;28;20044;-66
2022/05/27 09:47:09;;;;;;;9.48;1.80;;;;;;;17.59;50.70;100972.97;6073378;28;20069;-66
2022/05/27 09:50:08;;;;;;;5.32;1.23;;;;;;;17.58;48.09;100982.84;6068296;28;20360;-66
2022/05/27 09:53:04;;;;;;;11.02;1.60;;;;;;;17.32;49.20;100977.06;6051079;28;20115;-66
2022/05/27 09:56:04;;;;;;;4.85;1.17;;;;;;;17.66;47.94;100995.38;6053264;28;20408;-66
2022/05/27 09:59:03;;;;;;;;;;;;;;;17.89;48.62;100984.50;6052173;28;20038;-66
2022/05/27 10:02:16;;;;;;;5.53;1.20;;;;;;;18.07;49.08;100987.66;6069527;28;20063;-66
2022/05/27 10:05:17;;;;;;;8.40;1.38;;;;;;;17.70;47.56;100986.75;6052704;28;20435;-67
2022/05/27 10:08:29;;;;;;;6.32;1.58;;;;;;;17.15;48.74;100992.47;6050341;28;20029;-66
2022/05/27 10:11:27;;;;;;;4.97;1.52;;;;;;;16.66;50.28;100992.06;6051902;28;20026;-66
2022/05/27 10:14:24;;;;;;;6.20;1.45;;;;;;;16.54;50.80;101014.91;6051401;28;20045;-66
2022/05/27 10:17:35;;;;;;;5.55;1.60;;;;;;;16.31;51.11;101010.47;6051652;28;20049;-66
2022/05/27 10:20:34;;;;;;;7.68;1.90;;;;;;;16.19;53.74;101015.41;6058478;28;20026;-66
2022/05/27 10:23:35;;;;;;;5.88;1.60;;;;;;;16.25;54.81;101022.72;6051984;28;20030;-67
2022/05/27 10:26:33;;;;;;;11.05;1.50;;;;;;;15.83;58.48;100998.19;6061122;28;20535;-66
2022/05/27 10:29:28;;;;;;;6.40;1.52;;;;;;;15.61;59.23;101020.31;6050629;28;20382;-66
2022/05/27 10:32:34;;;;;;;5.90;1.30;;;;;;;15.56;61.57;101006.63;6056731;28;20022;-66
2022/05/27 10:35:32;;;;;;;3.92;1.25;;;;;;;16.29;60.74;100999.13;6050284;28;20045;-66
2022/05/27 10:38:33;;;;;;;6.63;2.00;;;;;;;16.86;58.06;100996.94;6051756;28;20045;-67
2022/05/27 10:41:50;;;;;;;6.47;1.35;;;;;;;17.31;56.74;100986.16;6053326;28;20116;-66
2022/05/27 10:45:23;;;;;;;5.28;1.75;;;;;;;17.87;53.38;100987.38;6054066;28;20067;-66
2022/05/27 10:48:37;;;;;;;7.45;1.67;;;;;;;18.03;54.66;100972.91;6038039;28;20052;-66
2022/05/27 10:51:48;;;;;;;6.97;1.50;;;;;;;18.39;51.97;100973.78;6059064;28;20120;-66
2022/05/27 10:55:07;;;;;;;7.95;1.77;;;;;;;18.35;51.27;100975.16;6066518;28;20424;-66
2022/05/27 11:05:03;;;;;;;7.53;2.10;;;;;;;16.98;54.03;100990.16;6050297;28;20065;-66
2022/05/27 11:08:07;;;;;;;7.05;1.67;;;;;;;16.34;54.75;100986.88;6054478;28;20042;-66
2022/05/27 11:11:22;;;;;;;9.60;2.15;;;;;;;16.04;55.58;100985.03;6058103;28;20366;-66
2022/05/27 11:17:38;;;;;;;5.13;1.52;;;;;;;16.73;55.88;100983.31;6054363;28;20488;-66
2022/05/27 11:20:36;;;;;;;10.15;1.77;;;;;;;16.98;54.42;100966.88;6049859;28;20038;-66
2022/05/27 11:24:07;;;;;;;7.32;1.60;;;;;;;17.77;51.23;100976.13;6061837;28;20033;-66
2022/05/27 11:27:23;;;;;;;4.07;1.98;;;;;;;18.18;49.54;100968.38;6044852;28;20037;-66
2022/05/27 11:30:42;;;;;;;6.80;1.30;;;;;;;18.95;49.40;100970.22;6049044;28;20038;-66
2022/05/27 11:33:44;;;;;;;4.68;1.05;;;;;;;18.24;44.53;100955.00;6040747;28;20034;-66
2022/05/27 11:36:57;;;;;;;6.10;1.67;;;;;;;17.87;47.42;100967.78;6049823;28;20045;-66
2022/05/27 11:40:14;;;;;;;10.30;1.70;;;;;;;17.56;46.27;100981.38;6050044;28;20188;-66
2022/05/27 11:43:29;;;;;;;7.70;1.70;;;;;;;17.76;46.09;100974.44;6055874;28;20025;-66
2022/05/27 11:46:49;;;;;;;12.00;1.38;;;;;;;18.09;44.40;100974.88;6054655;28;20033;-66
2022/05/27 11:50:15;;;;;;;6.60;1.25;;;;;;;18.33;45.48;100982.56;6049651;28;20037;-66
2022/05/27 11:53:29;;;;;;;10.73;1.42;;;;;;;18.64;43.36;100980.47;6066119;28;20474;-66
2022/05/27 11:56:36;;;;;;;8.27;2.00;;;;;;;18.62;41.75;100987.88;6049833;28;20492;-66
2022/05/27 11:59:43;;;;;;;5.60;1.15;;;;;;;18.20;44.13;100988.63;6060486;28;20061;-66
2022/05/27 12:02:58;;;;;;;6.68;1.95;;;;;;;17.46;42.90;100987.00;6049149;28;20478;-66
2022/05/27 12:05:57;;;;;;;8.43;1.33;;;;;;;17.02;43.77;100986.06;6050692;28;20489;-66
2022/05/27 12:08:58;;;;;;;9.95;1.52;;;;;;;16.96;45.37;100982.28;6048125;28;20045;-66
2022/05/27 12:12:08;;;;;;;5.25;1.33;;;;;;;16.58;48.54;100984.06;6062937;28;20038;-66
2022/05/27 12:15:06;;;;;;;7.30;1.38;;;;;;;16.08;48.80;101002.44;6048353;28;20038;-66
2022/05/27 12:18:03;;;;;;;5.18;1.65;;;;;;;16.46;48.61;100985.47;6048316;28;20045;-65
2022/05/27 12:20:59;;;;;;;7.88;1.55;;;;;;;17.16;45.89;100988.78;6046832;28;20041;-66
2022/05/27 12:24:01;;;;;;;7.57;1.63;;;;;;;17.57;43.83;100981.19;6048116;28;20527;-66
2022/05/27 12:26:57;;;;;;;4.88;1.30;;;;;;;17.74;43.94;100977.31;6065862;28;20121;-66
2022/05/27 12:29:53;;;;;;;3.70;1.20;;;;;;;17.94;42.82;100976.75;6048248;28;20033;-66
2022/05/27 12:32:49;;;;;;;4.05;1.25;;;;;;;17.81;42.09;100978.22;6053845;28;20041;-66
2022/05/27 12:36:05;;;;;;;7.70;1.73;;;;;;;17.78;44.81;100977.75;6049334;28;20037;-66
2022/05/27 12:39:00;;;;;;;5.25;1.20;;;;;;;17.76;45.07;100980.66;6047710;28;20044;-66
2022/05/27 12:42:07;;;;;;;9.80;1.40;;;;;;;17.36;43.22;100974.88;6053047;28;20042;-66
2022/05/27 12:45:39;;;;;;;5.60;1.23;;;;;;;17.91;42.22;100982.50;6050276;28;20107;-66
2022/05/27 12:48:37;;;;;;;9.07;1.55;;;;;;;17.26;44.14;100969.75;6023041;28;20037;-66
2022/05/27 12:51:37;;;;;;;4.72;1.38;;;;;;;17.21;43.63;100980.19;6052647;28;20554;-66
2022/05/27 12:54:58;;;;;;;14.00;1.40;;;;;;;17.43;44.18;100978.47;6038103;28;20125;-67
2022/05/27 13:01:28;;;;;;;9.52;1.73;;;;;;;16.85;45.57;100971.16;6057622;28;20397;-66
2022/05/27 13:04:47;;;;;;;8.38;1.33;;;;;;;16.52;47.46;100990.09;6071048;28;20091;-66
2022/05/27 13:07:46;;;;;;;8.65;1.55;;;;;;;16.17;48.57;100985.31;6051915;28;20045;-67
2022/05/27 13:10:47;;;;;;;5.07;1.73;;;;;;;15.65;52.87;101008.28;6058076;28;20073;-66
2022/05/27 13:13:43;;;;;;;6.05;2.13;;;;;;;14.62;58.66;101033.00;6051426;28;20096;-67
2022/05/27 13:17:03;;;;;;;6.28;1.55;;;;;;;13.60;64.22;101027.75;6051331;28;20549;-66
2022/05/27 13:20:08;;;;;;;10.88;1.88;;;;;;;13.20;66.78;101022.16;6070435;28;20084;-67
2022/05/27 13:23:12;;;;;;;6.20;1.33;;;;;;;13.29;66.21;101036.38;6054087;28;20048;-66
2022/05/27 13:26:13;;;;;;;5.40;1.33;;;;;;;13.65;63.89;101037.94;6064488;28;20037;-67
2022/05/27 13:29:33;;;;;;;3.63;1.50;;;;;;;14.38;62.88;101035.63;6084430;28;20026;-67
2022/05/27 13:32:31;;;;;;;3.10;1.17;;;;;;;15.53;58.91;101028.34;6052447;28;20056;-67
2022/05/27 13:35:35;;;;;;;4.68;1.23;;;;;;;15.91;57.47;101006.16;6053661;28;20485;-67
2022/05/27 13:38:36;;;;;;;4.60;1.33;;;;;;;16.83;54.10;101008.00;6077516;28;20034;-68
2022/05/27 13:41:43;;;;;;;10.48;1.33;;;;;;;17.28;52.01;101003.41;6077738;28;20038;-66
2022/05/27 13:44:41;;;;;;;5.40;1.00;;;;;;;17.57;52.64;101002.66;6052688;28;20462;-67
2022/05/27 13:47:42;;;;;;;5.15;1.27;;;;;;;17.79;49.19;100991.00;6059936;28;20033;-67
2022/05/27 13:50:41;;;;;;;6.20;1.00;;;;;;;18.16;49.54;100997.25;6056353;28;20104;-66
2022/05/27 13:53:36;;;;;;;6.57;1.40;;;;;;;17.28;49.43;100991.88;6055772;28;20049;-67
2022/05/27 13:56:37;;;;;;;6.55;1.30;;;;;;;16.72;50.89;100990.50;6058121;28;20042;-67
2022/05/27 13:59:52;;;;;;;9.15;1.20;;;;;;;17.01;48.16;100995.94;6067016;28;20065;-67
2022/05/27 14:02:49;;;;;;;6.57;1.30;;;;;;;17.62;45.74;100994.06;6061034;28;20481;-66
2022/05/27 14:05:44;;;;;;;4.20;1.00;;;;;;;17.42;44.82;100998.28;6059560;28;20033;-67
2022/05/27 14:08:44;;;;;;;3.47;1.00;;;;;;;17.90;43.30;100997.75;6052774;28;20065;-67
2022/05/27 14:11:44;;;;;;;6.07;1.08;;;;;;;17.67;44.13;100991.63;6058391;28;20371;-67
2022/05/27 14:14:42;;;;;;;3.83;0.90;;;;;;;17.73;43.67;100981.00;6052329;28;20033;-67
2022/05/27 14:17:43;;;;;;;7.43;1.60;;;;;;;17.93;43.67;100985.81;6053008;28;20512;-67
2022/05/27 14:24:01;;;;;;;7.82;1.10;;;;;;;17.10;43.21;101004.75;6020142;28;20142;-67
2022/05/27 14:26:57;;;;;;;5.18;1.40;;;;;;;16.92;44.80;101006.94;6058015;28;20555;-66
2022/05/27 14:29:54;;;;;;;11.55;1.40;;;;;;;16.98;44.02;100995.50;6050039;28;20026;-67